This is the latest recevied weather packets stored in our database for station/object N7UV-WX. If no packets are shown the sender has not sent any weather packets the latest 10 day(s).
| Time | Temp. | Humidity | Pressure | Rain* | Wind** | Luminosity | Snow |
|---|---|---|---|---|---|---|---|
| 1777869319 | 26.67° C | 19% | 1007.8 hPa | 0 mm | - | 0 W/m² | - |
| 1777868739 | 27.22° C | 19% | 1007.7 hPa | 0 mm | - | 0 W/m² | - |
| 1777865139 | 28.33° C | 16% | 1006.3 hPa | 0 mm | - | 0 W/m² | - |
| 1777862160 | 29.44° C | 13% | 1005.3 hPa | 0 mm | - | 0 W/m² | - |
| 1777859733 | 30.56° C | 15% | 1004.6 hPa | 0 mm | - | 23 W/m² | - |
| 1777859120 | 30.56° C | 15% | 1004.5 hPa | 0 mm | - | 53 W/m² | - |
| 1777856720 | 31.67° C | 13% | 1004.7 hPa | 0 mm | - | 188 W/m² | - |
| 1777852522 | 33.33° C | 11% | 1004.3 hPa | 0 mm | - | 475 W/m² | - |
| 1777847734 | 33.33° C | 12% | 1005.3 hPa | 0 mm | - | 255 W/m² | - |
| 1777846540 | 33.89° C | 12% | 1005.7 hPa | 0 mm | - | 810 W/m² | - |
| 1777845935 | 33.33° C | 13% | 1005.8 hPa | 0 mm | - | 844 W/m² | - |
| 1777841758 | 33.33° C | 15% | 1006.9 hPa | 0 mm | - | 995 W/m² | - |
| 1777836919 | 31.11° C | 20% | 1008.5 hPa | 0 mm | - | 1051 W/m² | - |
| 1777835719 | 30.56° C | 21% | 1008.8 hPa | 0 mm | - | 1044 W/m² | - |
| 1777835119 | 31.11° C | 20% | 1009.1 hPa | 0 mm | - | 1041 W/m² | - |
| 1777831534 | 29.44° C | 20% | 1009.7 hPa | 0 mm | - | 958 W/m² | - |
| 1777829119 | 28.89° C | 23% | 1010 hPa | 0 mm | - | 506 W/m² | - |
| 1777823154 | 26.11° C | 28% | 1009.8 hPa | 0 mm | - | 278 W/m² | - |
| 1777822519 | 26.11° C | 28% | 1009.7 hPa | 0 mm | - | 278 W/m² | - |
| 1777821918 | 26.11° C | 28% | 1009.7 hPa | 0 mm | - | 214 W/m² | - |
| 1777819533 | 26.11° C | 28% | 1009.8 hPa | 0 mm | - | 190 W/m² | - |
| 1777818919 | 26.11° C | 28% | 1009.7 hPa | 0 mm | - | 160 W/m² | - |
| 1777814719 | 25.56° C | 28% | 1009.2 hPa | 0 mm | - | 46 W/m² | - |
| 1777814155 | 26.11° C | 27% | 1009.2 hPa | 0 mm | - | 32 W/m² | - |
| 1777812318 | 26.11° C | 27% | 1009 hPa | 0 mm | - | 5 W/m² | - |
* Rain latest hour (hover to see other rain measurements)
** Current wind speed in m/s (hover to see current wind gust speed)